Time;durP1;ratioP1;P1;durP2;ratioP2;P2;SDS_P1;SDS_P2;PMS_P1;PMS_P2;Temp;Humidity;BMP_temperature;BMP_pressure;BME280_temperature;BME280_humidity;BME280_pressure;Samples;Min_cycle;Max_cycle;Signal;HPM_P1;HPM_P2
2023/10/20 00:00:14;;;;;;;34.00;17.30;;;;;;;10.27;100.00;98761.28;5034522;28;20612;-75
2023/10/20 00:02:40;;;;;;;33.20;18.67;;;;;;;10.20;100.00;98752.22;5031825;28;20091;-73
2023/10/20 00:05:06;;;;;;;37.45;17.67;;;;;;;10.20;100.00;98746.63;5010142;28;20044;-75
2023/10/20 00:07:32;;;;;;;43.20;19.67;;;;;;;10.08;100.00;98720.09;5031888;28;20468;-73
2023/10/20 00:09:57;;;;;;;34.65;18.27;;;;;;;10.05;100.00;98709.75;5034023;28;20064;-72
2023/10/20 00:12:22;;;;;;;38.08;17.55;;;;;;;10.13;100.00;98719.59;5013726;28;20128;-73
2023/10/20 00:14:48;;;;;;;36.50;18.83;;;;;;;10.12;100.00;98709.66;5036022;28;20415;-74
2023/10/20 00:17:14;;;;;;;38.78;18.42;;;;;;;9.94;100.00;98707.94;5009122;28;20033;-74
2023/10/20 00:19:39;;;;;;;44.80;18.92;;;;;;;10.00;100.00;98707.47;5030193;28;20095;-76
2023/10/20 00:22:05;;;;;;;39.58;17.45;;;;;;;10.09;100.00;98696.50;5029887;28;20135;-73
2023/10/20 00:24:30;;;;;;;37.70;18.10;;;;;;;9.73;100.00;98703.53;5034544;28;20058;-73
2023/10/20 00:26:56;;;;;;;34.50;16.40;;;;;;;9.86;100.00;98695.31;5033479;28;20033;-72
2023/10/20 00:29:21;;;;;;;42.35;20.65;;;;;;;9.95;100.00;98684.38;5025483;28;20033;-74
2023/10/20 00:31:47;;;;;;;34.25;18.20;;;;;;;9.90;100.00;98684.88;5041301;28;20021;-73
2023/10/20 00:34:12;;;;;;;40.75;19.08;;;;;;;9.87;100.00;98680.16;5037540;28;20025;-74
2023/10/20 00:36:38;;;;;;;40.75;17.70;;;;;;;9.85;100.00;98679.78;5040269;28;20031;-73
2023/10/20 00:39:04;;;;;;;40.28;18.80;;;;;;;9.64;100.00;98669.00;5022773;28;20075;-75
2023/10/20 00:41:30;;;;;;;36.72;18.52;;;;;;;9.86;100.00;98678.56;5033301;28;20116;-74
2023/10/20 00:43:55;;;;;;;39.53;19.45;;;;;;;9.71;100.00;98674.44;5012939;28;20028;-74
2023/10/20 00:46:20;;;;;;;41.05;19.45;;;;;;;9.55;100.00;98672.34;5035335;28;20115;-75
2023/10/20 00:48:46;;;;;;;41.85;21.38;;;;;;;9.71;100.00;98666.06;5034894;28;20056;-74
2023/10/20 00:51:11;;;;;;;43.50;18.48;;;;;;;9.65;100.00;98659.38;5032960;28;20033;-72
2023/10/20 00:53:37;;;;;;;35.97;18.33;;;;;;;9.69;100.00;98658.09;5023036;28;20387;-73
2023/10/20 00:56:05;;;;;;;38.20;18.10;;;;;;;9.52;100.00;98656.41;5033265;28;20029;-73
2023/10/20 00:58:31;;;;;;;37.85;19.42;;;;;;;9.54;100.00;98654.78;5023011;28;20494;-73
2023/10/20 01:00:56;;;;;;;40.95;20.58;;;;;;;9.52;100.00;98640.44;5003179;28;20041;-73
2023/10/20 01:03:22;;;;;;;41.97;20.80;;;;;;;9.55;100.00;98638.81;5016832;28;20021;-74
2023/10/20 01:05:48;;;;;;;42.42;17.98;;;;;;;9.50;100.00;98622.53;5032466;28;20491;-75
2023/10/20 01:08:14;;;;;;;39.95;19.25;;;;;;;9.61;100.00;98633.50;5037047;28;20514;-75
2023/10/20 01:10:39;;;;;;;39.17;19.13;;;;;;;9.49;100.00;98612.59;5016157;28;20040;-75
2023/10/20 01:13:05;;;;;;;42.58;18.50;;;;;;;9.49;100.00;98605.00;5035070;28;20040;-77
2023/10/20 01:15:31;;;;;;;40.30;18.13;;;;;;;9.57;100.00;98600.06;5035570;28;20040;-74
2023/10/20 01:17:56;;;;;;;39.33;19.98;;;;;;;9.52;100.00;98598.53;5037992;28;20112;-75
2023/10/20 01:20:22;;;;;;;43.88;19.92;;;;;;;9.41;100.00;98616.72;5032596;28;20035;-75
2023/10/20 01:22:48;;;;;;;41.28;19.52;;;;;;;9.38;100.00;98621.13;5020734;28;20589;-75
2023/10/20 01:25:14;;;;;;;37.33;18.58;;;;;;;9.48;100.00;98622.16;5019666;28;20028;-76
2023/10/20 01:27:39;;;;;;;37.55;19.23;;;;;;;9.38;100.00;98621.13;5012993;28;20565;-76
2023/10/20 01:30:05;;;;;;;39.63;18.38;;;;;;;9.23;100.00;98622.59;5029614;28;20040;-76
2023/10/20 01:32:30;;;;;;;33.42;17.42;;;;;;;9.35;100.00;98619.97;5039873;28;20029;-77
2023/10/20 01:34:56;;;;;;;48.35;21.17;;;;;;;9.35;100.00;98613.63;5030776;28;20119;-77
2023/10/20 01:37:21;;;;;;;40.17;18.90;;;;;;;9.20;100.00;98604.69;5033978;28;20107;-76
2023/10/20 01:39:47;;;;;;;41.42;19.52;;;;;;;9.22;100.00;98616.22;5015775;28;20052;-76
2023/10/20 01:42:13;;;;;;;41.42;18.60;;;;;;;9.37;100.00;98608.41;5028285;28;20387;-77
2023/10/20 01:44:38;;;;;;;39.92;18.63;;;;;;;9.11;100.00;98594.09;5033383;28;20029;-76
2023/10/20 01:47:04;;;;;;;37.20;18.17;;;;;;;9.39;100.00;98608.75;5031408;28;20029;-76
2023/10/20 01:49:29;;;;;;;44.28;19.48;;;;;;;9.24;100.00;98605.44;5010883;28;20031;-76
2023/10/20 01:51:54;;;;;;;44.55;19.45;;;;;;;9.28;100.00;98608.16;5010794;28;20037;-76
2023/10/20 01:54:20;;;;;;;37.38;17.20;;;;;;;9.31;100.00;98596.13;5032617;28;20021;-76
2023/10/20 01:56:45;;;;;;;39.05;19.48;;;;;;;9.10;100.00;98586.13;5031352;28;20052;-76
2023/10/20 01:59:11;;;;;;;38.30;19.73;;;;;;;9.28;100.00;98585.84;5029167;28;20397;-76
2023/10/20 02:01:36;;;;;;;35.58;17.52;;;;;;;9.25;100.00;98592.25;5032031;28;20068;-76
2023/10/20 02:04:02;;;;;;;40.83;17.63;;;;;;;9.27;100.00;98587.81;5007655;28;20032;-76
2023/10/20 02:06:27;;;;;;;43.97;18.48;;;;;;;9.24;100.00;98576.72;5033935;28;20150;-75
2023/10/20 02:08:53;;;;;;;38.67;16.90;;;;;;;9.20;100.00;98578.78;5044357;28;20654;-75
2023/10/20 02:11:18;;;;;;;36.47;17.80;;;;;;;9.31;100.00;98573.81;5032962;28;20056;-75
2023/10/20 02:13:43;;;;;;;35.63;19.77;;;;;;;9.39;100.00;98564.09;5012601;28;20252;-76
2023/10/20 02:16:10;;;;;;;39.63;18.10;;;;;;;9.34;100.00;98557.00;5031258;28;20068;-76
2023/10/20 02:18:35;;;;;;;42.20;17.80;;;;;;;9.27;100.00;98553.53;5031711;28;20064;-76
2023/10/20 02:21:07;;;;;;;38.58;17.70;;;;;;;9.12;100.00;98556.56;5031452;28;20479;-76
2023/10/20 02:23:40;;;;;;;37.20;16.60;;;;;;;9.07;100.00;98571.03;5017346;28;20068;-77
2023/10/20 02:26:08;;;;;;;42.03;18.40;;;;;;;9.15;100.00;98566.13;5035692;28;20939;-76
2023/10/20 02:28:34;;;;;;;36.53;15.77;;;;;;;9.23;100.00;98561.19;5016653;28;20033;-76
2023/10/20 02:31:01;;;;;;;34.47;17.08;;;;;;;9.06;100.00;98563.84;5034371;28;20119;-77
2023/10/20 02:33:26;;;;;;;38.75;17.17;;;;;;;9.12;100.00;98556.56;5030341;28;20676;-76
2023/10/20 02:35:54;;;;;;;42.63;18.00;;;;;;;9.05;100.00;98556.69;5016336;28;20123;-77
2023/10/20 02:38:19;;;;;;;35.95;17.63;;;;;;;9.20;100.00;98550.88;5033651;28;20560;-76
2023/10/20 02:40:52;;;;;;;39.40;17.50;;;;;;;9.11;100.00;98537.47;5008343;28;20033;-76
2023/10/20 02:43:18;;;;;;;37.35;16.98;;;;;;;9.06;100.00;98530.34;5009711;28;20466;-76
2023/10/20 02:45:48;;;;;;;39.05;18.27;;;;;;;9.02;100.00;98526.84;5031035;28;20087;-76
2023/10/20 02:48:13;;;;;;;37.70;17.67;;;;;;;8.99;100.00;98524.91;5044209;28;20482;-76
2023/10/20 02:50:39;;;;;;;40.83;18.15;;;;;;;8.97;100.00;98520.97;5036361;28;20040;-76
2023/10/20 02:53:04;;;;;;;39.35;16.55;;;;;;;9.05;100.00;98523.22;5022689;28;20032;-76
2023/10/20 02:55:29;;;;;;;38.92;17.00;;;;;;;8.97;100.00;98507.81;5037974;28;20025;-76
2023/10/20 02:57:55;;;;;;;37.30;16.92;;;;;;;8.97;100.00;98495.88;5014312;28;20037;-76
2023/10/20 03:00:21;;;;;;;37.40;17.40;;;;;;;8.93;100.00;98482.75;5033028;28;20095;-76
2023/10/20 03:02:48;;;;;;;45.05;18.25;;;;;;;8.99;100.00;98480.28;5038931;28;20044;-76
2023/10/20 03:05:15;;;;;;;36.80;16.50;;;;;;;9.12;100.00;98458.91;5035697;28;20041;-76
2023/10/20 03:07:40;;;;;;;42.95;18.90;;;;;;;8.95;100.00;98460.00;5048532;28;20084;-77
2023/10/20 03:10:06;;;;;;;33.92;17.02;;;;;;;8.95;100.00;98457.22;5046671;28;20446;-76
2023/10/20 03:12:31;;;;;;;41.05;19.20;;;;;;;8.84;100.00;98446.25;5041810;28;20106;-77
2023/10/20 03:14:56;;;;;;;39.58;18.33;;;;;;;8.80;100.00;98436.38;5037288;28;20150;-76
2023/10/20 03:17:22;;;;;;;46.22;17.98;;;;;;;8.84;100.00;98435.09;5035346;28;20086;-76
2023/10/20 03:19:48;;;;;;;34.33;16.75;;;;;;;9.00;100.00;98445.56;5034851;28;20037;-75
2023/10/20 03:22:13;;;;;;;37.58;17.75;;;;;;;8.76;100.00;98436.44;5039636;28;20131;-78
2023/10/20 03:24:40;;;;;;;32.60;16.75;;;;;;;8.88;100.00;98423.88;5017076;28;20808;-77
2023/10/20 03:27:07;;;;;;;40.58;18.27;;;;;;;8.80;100.00;98411.28;5040870;28;20136;-77
2023/10/20 03:29:32;;;;;;;35.88;18.33;;;;;;;8.75;100.00;98416.13;5044788;28;20028;-76
2023/10/20 03:31:57;;;;;;;41.00;17.85;;;;;;;8.85;100.00;98419.16;5038341;28;20036;-77
2023/10/20 03:34:23;;;;;;;40.50;17.75;;;;;;;8.72;100.00;98416.97;5019478;28;20474;-77
2023/10/20 03:36:50;;;;;;;43.25;18.25;;;;;;;8.81;100.00;98418.41;5043669;28;20806;-77
2023/10/20 03:39:21;;;;;;;38.55;18.25;;;;;;;8.66;100.00;98415.09;5037683;28;20047;-77
2023/10/20 03:41:49;;;;;;;40.03;18.73;;;;;;;8.74;100.00;98424.91;5037029;28;20085;-77
2023/10/20 03:44:15;;;;;;;38.42;18.67;;;;;;;8.67;100.00;98423.03;5041841;28;20112;-77
2023/10/20 03:46:59;;;;;;;44.03;18.50;;;;;;;8.70;100.00;98416.59;5037007;28;20646;-77
2023/10/20 03:49:26;;;;;;;41.60;19.02;;;;;;;8.69;100.00;98397.53;5010956;28;20044;-77
2023/10/20 03:51:51;;;;;;;43.80;19.40;;;;;;;8.71;100.00;98397.88;5043720;28;20067;-77
2023/10/20 03:54:24;;;;;;;51.17;20.25;;;;;;;8.73;100.00;98395.47;5036125;28;20119;-77
2023/10/20 03:56:49;;;;;;;;;;;;;;;8.74;100.00;98389.44;5038922;28;20035;-75
2023/10/20 03:59:16;;;;;;;40.42;18.40;;;;;;;8.88;100.00;98370.88;5011002;28;19920;-77
2023/10/20 04:01:41;;;;;;;48.65;23.02;;;;;;;8.69;100.00;98387.16;5032978;28;20111;-76
2023/10/20 04:04:09;;;;;;;40.95;18.27;;;;;;;8.56;100.00;98380.63;5038654;28;20053;-77
2023/10/20 04:06:38;;;;;;;44.85;19.92;;;;;;;8.67;100.00;98384.00;5036084;28;20052;-77
2023/10/20 04:09:08;;;;;;;45.13;19.55;;;;;;;8.64;100.00;98382.06;5039463;28;20032;-77
2023/10/20 04:11:34;;;;;;;44.80;20.20;;;;;;;8.60;100.00;98381.34;5037776;28;20036;-76
2023/10/20 04:14:01;;;;;;;39.67;19.13;;;;;;;8.63;100.00;98386.06;5036465;28;20372;-77
2023/10/20 04:16:27;;;;;;;39.10;18.00;;;;;;;8.71;100.00;98381.94;5035832;28;20029;-77
2023/10/20 04:18:53;;;;;;;51.00;18.38;;;;;;;8.68;100.00;98379.97;5017988;28;20072;-77
2023/10/20 04:21:19;;;;;;;45.17;20.23;;;;;;;8.67;100.00;98372.84;5045322;28;20025;-77
2023/10/20 04:23:44;;;;;;;42.30;17.95;;;;;;;8.60;100.00;98374.97;5048678;28;20025;-77
2023/10/20 04:26:20;;;;;;;43.47;19.95;;;;;;;8.58;100.00;98360.66;5043536;28;20050;-77
2023/10/20 04:28:47;;;;;;;42.13;18.50;;;;;;;8.49;100.00;98353.63;5045731;28;20027;-77
2023/10/20 05:00:41;;;;;;;35.55;17.92;;;;;;;8.43;100.00;98290.44;5016195;28;20057;-75
2023/10/20 05:03:24;;;;;;;39.90;17.77;;;;;;;8.44;100.00;98297.59;5043606;28;20028;-75
2023/10/20 05:05:58;;;;;;;39.22;17.85;;;;;;;8.50;100.00;98307.84;5040764;28;20029;-75
2023/10/20 05:08:24;;;;;;;37.35;17.58;;;;;;;8.43;100.00;98293.22;5046925;28;20048;-75
2023/10/20 05:10:50;;;;;;;35.70;17.67;;;;;;;8.50;100.00;98305.03;5044251;28;20120;-75
2023/10/20 05:13:17;;;;;;;40.47;18.73;;;;;;;8.59;100.00;98304.47;5040233;28;20195;-75
2023/10/20 05:15:44;;;;;;;35.30;17.17;;;;;;;8.58;100.00;98300.13;5036648;28;20116;-75
2023/10/20 05:18:12;;;;;;;36.85;17.58;;;;;;;8.51;100.00;98295.44;5034047;28;20090;-75
2023/10/20 05:20:40;;;;;;;35.55;16.73;;;;;;;8.65;100.00;98279.69;5042233;28;20032;-75
2023/10/20 05:23:06;;;;;;;38.97;18.27;;;;;;;8.65;100.00;98276.91;5035763;28;20129;-75
2023/10/20 05:25:32;;;;;;;37.53;17.77;;;;;;;8.67;100.00;98275.25;5043832;28;20497;-75
2023/10/20 05:27:58;;;;;;;39.25;19.63;;;;;;;8.68;100.00;98271.22;5038109;28;20111;-75
2023/10/20 05:30:23;;;;;;;38.45;18.60;;;;;;;8.46;100.00;98265.28;5042637;28;20137;-75
2023/10/20 05:32:49;;;;;;;34.35;18.83;;;;;;;8.63;100.00;98255.00;5021238;28;20033;-75
2023/10/20 05:35:15;;;;;;;37.80;16.58;;;;;;;8.60;100.00;98243.91;5036271;28;20021;-75
2023/10/20 05:37:40;;;;;;;35.47;16.20;;;;;;;8.54;100.00;98238.06;5042276;28;20059;-75
2023/10/20 05:40:06;;;;;;;30.15;15.13;;;;;;;8.55;100.00;98231.28;5021805;28;20071;-75
2023/10/20 05:42:31;;;;;;;38.95;16.60;;;;;;;8.43;100.00;98243.06;5037014;28;20582;-75
2023/10/20 05:45:09;;;;;;;37.80;16.95;;;;;;;8.58;100.00;98241.56;5021078;28;20086;-75
2023/10/20 05:47:40;;;;;;;34.22;16.05;;;;;;;8.54;100.00;98224.13;5039683;28;20045;-76
2023/10/20 05:50:07;;;;;;;39.38;16.67;;;;;;;8.41;100.00;98206.47;5025838;28;20120;-76
2023/10/20 05:52:35;;;;;;;40.90;17.17;;;;;;;8.53;100.00;98203.81;5038491;28;20033;-76
2023/10/20 05:55:02;;;;;;;37.97;16.33;;;;;;;8.67;100.00;98204.75;5035813;28;20025;-76
2023/10/20 05:57:28;;;;;;;31.13;16.27;;;;;;;8.46;100.00;98208.75;5040365;28;20141;-76
2023/10/20 05:59:54;;;;;;;38.10;15.77;;;;;;;8.49;100.00;98213.47;5042909;28;20386;-76
2023/10/20 06:02:19;;;;;;;39.58;18.23;;;;;;;8.41;100.00;98201.69;5035310;28;20112;-76
2023/10/20 06:04:44;;;;;;;40.92;17.38;;;;;;;8.50;100.00;98206.69;5036294;28;20120;-76
2023/10/20 06:07:10;;;;;;;37.13;16.05;;;;;;;8.40;100.00;98216.00;5009524;28;20454;-77
2023/10/20 06:09:36;;;;;;;31.15;14.43;;;;;;;8.34;100.00;98219.28;5016708;28;20029;-75
2023/10/20 06:12:03;;;;;;;31.45;14.25;;;;;;;8.59;100.00;98234.00;5018233;28;20039;-75
2023/10/20 06:14:30;;;;;;;31.13;15.60;;;;;;;8.55;100.00;98228.47;5013929;28;20043;-75
2023/10/20 06:16:56;;;;;;;29.90;14.40;;;;;;;8.79;100.00;98220.03;5012454;28;20123;-75
2023/10/20 06:19:21;;;;;;;40.53;16.98;;;;;;;8.94;100.00;98227.66;5022509;28;20027;-75
2023/10/20 06:21:46;;;;;;;35.88;16.83;;;;;;;8.79;100.00;98223.63;5020646;28;20033;-75
2023/10/20 06:24:13;;;;;;;29.45;15.25;;;;;;;8.79;100.00;98229.19;5023704;28;20115;-76
2023/10/20 06:26:38;;;;;;;33.10;14.52;;;;;;;8.81;100.00;98240.69;5021787;28;20041;-75
2023/10/20 06:29:26;;;;;;;35.67;15.77;;;;;;;8.66;100.00;98234.63;5026793;28;20037;-75
2023/10/20 06:34:35;;;;;;;28.83;13.05;;;;;;;8.87;100.00;98224.25;5025576;28;20319;-75
2023/10/20 06:37:13;;;;;;;27.25;12.90;;;;;;;8.97;100.00;98214.84;5024940;28;20423;-76
2023/10/20 06:39:38;;;;;;;25.95;13.00;;;;;;;8.98;100.00;98199.69;5026159;28;20490;-74
2023/10/20 06:42:09;;;;;;;29.55;13.15;;;;;;;8.99;100.00;98211.63;5025107;28;20025;-75
2023/10/20 06:44:34;;;;;;;27.17;12.93;;;;;;;8.88;100.00;98215.44;5025285;28;20033;-75
2023/10/20 06:47:00;;;;;;;24.67;12.48;;;;;;;8.87;100.00;98225.00;5027133;28;20025;-76
2023/10/20 06:49:25;;;;;;;20.58;10.27;;;;;;;9.06;100.00;98215.03;5041341;28;20028;-76
2023/10/20 06:51:51;;;;;;;23.45;11.50;;;;;;;8.82;100.00;98213.59;5026431;28;20136;-76
2023/10/20 06:54:17;;;;;;;23.23;11.15;;;;;;;8.83;100.00;98206.78;5023362;28;20079;-76
2023/10/20 06:56:42;;;;;;;22.15;11.60;;;;;;;8.72;100.00;98212.59;5022088;28;20036;-75
2023/10/20 06:59:12;;;;;;;20.50;10.95;;;;;;;8.73;100.00;98208.59;5025999;28;20037;-74
2023/10/20 07:01:38;;;;;;;20.10;11.40;;;;;;;8.76;100.00;98210.53;5018069;28;20514;-74
2023/10/20 07:04:06;;;;;;;21.30;11.25;;;;;;;8.67;100.00;98218.69;5022155;28;20120;-74
2023/10/20 07:06:31;;;;;;;19.40;10.07;;;;;;;8.91;100.00;98200.63;5027744;28;20465;-75
2023/10/20 07:08:57;;;;;;;18.10;10.50;;;;;;;9.00;100.00;98213.97;5043167;28;20523;-74
2023/10/20 07:11:24;;;;;;;18.95;10.13;;;;;;;8.82;100.00;98219.19;5047195;28;20057;-74
2023/10/20 07:13:49;;;;;;;24.08;9.90;;;;;;;8.85;100.00;98191.19;5045177;28;20033;-75
2023/10/20 07:16:15;;;;;;;17.25;9.77;;;;;;;8.98;100.00;98194.13;5047095;28;20017;-73
2023/10/20 07:18:40;;;;;;;17.30;9.30;;;;;;;8.99;100.00;98198.47;5047524;28;20574;-72
2023/10/20 07:21:05;;;;;;;21.90;8.95;;;;;;;9.14;100.00;98188.56;5027700;28;20039;-72
2023/10/20 07:23:32;;;;;;;20.35;10.10;;;;;;;9.19;100.00;98192.03;5027080;28;20025;-72
2023/10/20 07:25:57;;;;;;;13.18;8.38;;;;;;;8.93;100.00;98191.81;5046419;28;20036;-72
2023/10/20 07:28:22;;;;;;;14.35;8.05;;;;;;;8.93;100.00;98203.75;5044129;28;20025;-73
2023/10/20 07:30:48;;;;;;;14.88;8.55;;;;;;;8.97;100.00;98191.75;5044366;28;20040;-73
2023/10/20 07:33:14;;;;;;;9.20;6.70;;;;;;;8.99;100.00;98186.53;5046193;28;20503;-73
2023/10/20 07:35:39;;;;;;;13.68;7.55;;;;;;;8.93;100.00;98191.81;5023263;28;20163;-73
2023/10/20 07:38:05;;;;;;;11.52;7.28;;;;;;;8.88;100.00;98170.03;5044071;28;20609;-73
2023/10/20 07:40:34;;;;;;;8.43;5.15;;;;;;;8.93;100.00;98184.22;5043100;28;20093;-72
2023/10/20 07:43:06;;;;;;;12.23;6.28;;;;;;;8.86;100.00;98189.97;5038872;28;20032;-72
2023/10/20 07:45:36;;;;;;;14.93;7.38;;;;;;;8.90;100.00;98204.66;5047159;28;20043;-73
2023/10/20 07:48:02;;;;;;;10.40;6.32;;;;;;;8.79;100.00;98192.94;5040852;28;20479;-73
2023/10/20 07:50:27;;;;;;;11.65;6.72;;;;;;;8.88;100.00;98195.13;5043450;28;20029;-73
2023/10/20 07:52:53;;;;;;;7.82;5.95;;;;;;;8.86;100.00;98200.38;5044617;28;20056;-73
2023/10/20 07:55:19;;;;;;;8.63;5.18;;;;;;;8.77;100.00;98200.16;5043580;28;20091;-73
2023/10/20 07:57:44;;;;;;;8.43;5.65;;;;;;;8.78;100.00;98204.53;5049885;28;20486;-73
2023/10/20 08:00:13;;;;;;;8.38;6.50;;;;;;;8.67;100.00;98188.81;5044911;28;20036;-73
2023/10/20 08:02:38;;;;;;;8.38;4.78;;;;;;;8.61;100.00;98178.59;5029184;28;20036;-74
2023/10/20 08:05:05;;;;;;;8.82;5.05;;;;;;;8.62;100.00;98175.38;5026977;28;20736;-74
2023/10/20 08:07:30;;;;;;;7.05;4.25;;;;;;;8.71;100.00;98180.38;5029602;28;20048;-73
2023/10/20 08:09:56;;;;;;;8.85;4.82;;;;;;;8.53;100.00;98180.72;5045001;28;20033;-72
2023/10/20 08:12:21;;;;;;;7.72;4.00;;;;;;;8.37;100.00;98178.66;5045220;28;20025;-72
2023/10/20 08:14:46;;;;;;;4.78;3.88;;;;;;;8.43;100.00;98176.16;5046832;28;20304;-72
2023/10/20 08:17:12;;;;;;;4.35;3.45;;;;;;;8.69;100.00;98177.22;5042797;28;20036;-72
2023/10/20 08:19:37;;;;;;;5.32;3.65;;;;;;;8.55;100.00;98172.72;5041878;28;20154;-74
2023/10/20 08:22:03;;;;;;;5.40;3.30;;;;;;;8.59;100.00;98170.66;5030600;28;20083;-72
2023/10/20 08:24:28;;;;;;;5.78;3.55;;;;;;;8.72;100.00;98176.34;5026456;28;20071;-72
2023/10/20 08:26:53;;;;;;;5.85;3.55;;;;;;;8.46;100.00;98173.31;5039510;28;20039;-72
2023/10/20 08:29:19;;;;;;;4.93;3.65;;;;;;;8.53;100.00;98177.94;5025341;28;20032;-71
2023/10/20 08:31:45;;;;;;;4.57;3.05;;;;;;;8.48;100.00;98168.09;5045234;28;20033;-72
2023/10/20 08:34:10;;;;;;;4.30;3.33;;;;;;;8.60;100.00;98180.59;5041457;28;20039;-71
2023/10/20 08:36:36;;;;;;;4.10;3.60;;;;;;;8.44;100.00;98169.38;5044508;28;20033;-72
2023/10/20 08:39:06;;;;;;;3.60;2.80;;;;;;;8.56;100.00;98168.72;5029186;28;20037;-72
2023/10/20 08:41:33;;;;;;;4.80;3.40;;;;;;;8.74;100.00;98165.53;5043061;28;20037;-72
2023/10/20 08:43:59;;;;;;;4.40;2.90;;;;;;;8.52;100.00;98165.22;5036817;28;20143;-71
2023/10/20 08:46:25;;;;;;;3.67;2.72;;;;;;;8.81;100.00;98162.59;5043102;28;20659;-73
2023/10/20 08:48:50;;;;;;;4.90;2.67;;;;;;;8.79;100.00;98161.44;5027336;28;20464;-71
2023/10/20 08:51:17;;;;;;;3.38;2.47;;;;;;;8.85;100.00;98148.56;5046787;28;20036;-71
2023/10/20 08:53:43;;;;;;;2.70;2.40;;;;;;;8.67;100.00;98146.19;5041286;28;20445;-72
2023/10/20 08:56:10;;;;;;;4.07;2.60;;;;;;;8.53;100.00;98155.63;5028290;28;20037;-72
2023/10/20 08:58:36;;;;;;;3.03;2.35;;;;;;;8.62;100.00;98139.13;5042101;28;20029;-72
2023/10/20 09:01:04;;;;;;;6.45;3.75;;;;;;;8.77;100.00;98150.75;5040581;28;22900;-71
2023/10/20 09:03:38;;;;;;;3.95;2.38;;;;;;;8.82;100.00;98152.25;5042350;28;20075;-73
2023/10/20 09:06:05;;;;;;;3.38;2.53;;;;;;;8.75;100.00;98148.38;5043048;28;20024;-71
2023/10/20 09:08:31;;;;;;;4.00;2.35;;;;;;;8.77;100.00;98149.94;5044584;28;20128;-72
2023/10/20 09:10:57;;;;;;;5.40;2.88;;;;;;;8.73;100.00;98150.81;5028332;28;20032;-72
2023/10/20 09:13:29;;;;;;;2.90;2.65;;;;;;;8.79;100.00;98141.94;5043843;28;20039;-72
2023/10/20 09:15:55;;;;;;;6.13;2.80;;;;;;;8.61;100.00;98159.84;5037508;28;20403;-75
2023/10/20 09:18:22;;;;;;;2.50;2.30;;;;;;;8.46;100.00;98148.22;5044743;28;20123;-75
2023/10/20 09:20:47;;;;;;;5.05;2.78;;;;;;;8.59;100.00;98151.13;5035378;28;20486;-75
2023/10/20 09:23:12;;;;;;;4.55;2.90;;;;;;;8.55;100.00;98161.56;5024117;28;20025;-75
2023/10/20 09:25:38;;;;;;;4.47;2.25;;;;;;;8.52;100.00;98154.84;5047687;28;20048;-75
2023/10/20 09:28:03;;;;;;;3.30;2.22;;;;;;;8.68;100.00;98142.16;5043434;28;20036;-76
2023/10/20 09:30:29;;;;;;;3.15;2.20;;;;;;;8.68;100.00;98134.59;5038383;28;20048;-76
2023/10/20 09:32:55;;;;;;;2.97;2.00;;;;;;;8.64;100.00;98119.16;5040893;28;20036;-75
2023/10/20 09:35:21;;;;;;;2.83;2.13;;;;;;;8.64;100.00;98111.56;5045001;28;20021;-75
2023/10/20 09:37:54;;;;;;;3.40;1.85;;;;;;;8.40;100.00;98126.81;5040655;28;20025;-75
2023/10/20 09:40:20;;;;;;;4.05;2.47;;;;;;;8.35;100.00;98119.75;5042860;28;20033;-75
2023/10/20 09:43:01;;;;;;;3.22;1.90;;;;;;;8.53;100.00;98130.53;5025288;28;20044;-75
2023/10/20 09:45:36;;;;;;;2.95;1.75;;;;;;;8.30;100.00;98132.16;5040175;28;20037;-76
2023/10/20 09:48:10;;;;;;;3.15;1.67;;;;;;;8.44;100.00;98130.34;5044370;28;20033;-75
2023/10/20 09:50:37;;;;;;;2.72;2.08;;;;;;;8.35;100.00;98131.69;5043315;28;20086;-75
2023/10/20 09:53:03;;;;;;;2.22;1.80;;;;;;;8.41;100.00;98122.84;5041353;28;20402;-75
2023/10/20 09:55:29;;;;;;;2.72;1.52;;;;;;;8.38;100.00;98126.47;5041778;28;20036;-75
2023/10/20 09:57:56;;;;;;;1.63;1.52;;;;;;;8.65;100.00;98131.91;5044447;28;20025;-76
2023/10/20 10:00:31;;;;;;;8.20;2.22;;;;;;;8.66;100.00;98127.88;5038769;28;20074;-75
2023/10/20 10:02:58;;;;;;;1.83;1.70;;;;;;;8.71;100.00;98128.16;5042047;28;20104;-75
2023/10/20 10:05:23;;;;;;;3.33;1.88;;;;;;;8.72;100.00;98126.94;5039034;28;20027;-75
2023/10/20 10:08:05;;;;;;;1.83;1.50;;;;;;;8.73;100.00;98111.78;5043306;28;20048;-75
2023/10/20 10:10:32;;;;;;;2.10;1.55;;;;;;;8.90;100.00;98125.75;5042741;28;20071;-75
2023/10/20 10:13:00;;;;;;;2.95;1.50;;;;;;;8.78;100.00;98104.13;5041973;28;20036;-76
2023/10/20 10:15:37;;;;;;;1.15;1.00;;;;;;;8.78;100.00;98118.06;5042870;28;20029;-76
2023/10/20 10:18:09;;;;;;;1.27;1.08;;;;;;;8.83;100.00;98120.31;5022559;28;20425;-76
2023/10/20 10:20:42;;;;;;;2.00;1.30;;;;;;;8.77;100.00;98114.50;5025193;28;20032;-76
2023/10/20 10:23:10;;;;;;;1.23;1.13;;;;;;;8.68;100.00;98109.47;5041493;28;20406;-75
2023/10/20 10:25:37;;;;;;;1.83;1.20;;;;;;;8.81;100.00;98112.38;5028206;28;20454;-73
2023/10/20 10:28:16;;;;;;;2.00;1.10;;;;;;;8.69;100.00;98110.28;5042879;28;20029;-73
2023/10/20 10:30:44;;;;;;;1.55;1.17;;;;;;;8.84;100.00;98116.34;5038144;28;20426;-74
2023/10/20 10:33:12;;;;;;;1.88;0.85;;;;;;;8.62;100.00;98108.44;5039594;28;20040;-74
2023/10/20 10:35:38;;;;;;;1.05;0.98;;;;;;;8.65;100.00;98110.38;5035367;28;20058;-74
2023/10/20 10:38:20;;;;;;;1.40;1.30;;;;;;;8.67;100.00;98096.78;5038338;28;20040;-75
2023/10/20 10:40:46;;;;;;;1.27;1.05;;;;;;;8.64;100.00;98074.53;5042767;28;20107;-74
2023/10/20 10:43:16;;;;;;;3.85;0.80;;;;;;;8.41;100.00;98081.84;5039907;28;20112;-75
2023/10/20 10:45:42;;;;;;;1.92;1.20;;;;;;;8.49;100.00;98074.84;5026673;28;20470;-74
2023/10/20 10:48:10;;;;;;;2.25;1.05;;;;;;;8.53;100.00;98069.22;5042597;28;20483;-75
2023/10/20 10:50:43;;;;;;;2.22;1.10;;;;;;;8.53;100.00;98070.00;5038324;28;20040;-75
2023/10/20 10:53:10;;;;;;;3.80;1.20;;;;;;;8.63;100.00;98062.59;5039806;28;20033;-74
2023/10/20 10:55:35;;;;;;;1.98;0.80;;;;;;;8.75;100.00;98063.94;5045492;28;20029;-74
2023/10/20 10:58:02;;;;;;;3.65;1.60;;;;;;;8.71;100.00;98064.00;5043250;28;20087;-75
2023/10/20 11:00:28;;;;;;;1.00;0.90;;;;;;;8.35;100.00;98053.66;5036063;28;20033;-74
2023/10/20 11:02:56;;;;;;;1.15;0.80;;;;;;;8.41;100.00;98050.38;5037607;28;20115;-74
2023/10/20 11:05:21;;;;;;;1.90;1.02;;;;;;;8.38;100.00;98046.41;5035608;28;20045;-74
2023/10/20 11:08:03;;;;;;;0.45;0.45;;;;;;;8.42;100.00;98041.56;5041800;28;20044;-74
2023/10/20 11:10:30;;;;;;;1.13;1.02;;;;;;;8.53;100.00;98032.97;5045028;28;20490;-74
2023/10/20 11:12:56;;;;;;;0.60;0.50;;;;;;;8.43;100.00;98022.84;5046338;28;20032;-75
2023/10/20 11:15:30;;;;;;;5.85;1.35;;;;;;;8.32;100.00;98012.69;5045164;28;20031;-75
2023/10/20 11:17:58;;;;;;;1.73;0.80;;;;;;;8.42;100.00;98021.28;5042474;28;20034;-75
2023/10/20 11:20:24;;;;;;;0.63;0.57;;;;;;;8.60;100.00;98013.31;5044623;28;20029;-75
2023/10/20 11:22:53;;;;;;;0.50;0.40;;;;;;;8.77;100.00;98014.09;5038908;28;20025;-75
2023/10/20 11:25:20;;;;;;;2.28;0.60;;;;;;;8.62;100.00;98010.88;5039022;28;20090;-75
2023/10/20 11:27:54;;;;;;;0.75;0.57;;;;;;;8.60;100.00;98006.91;5029261;28;20060;-75
2023/10/20 11:30:46;;;;;;;0.60;0.60;;;;;;;8.42;100.00;97990.63;5039560;28;20033;-74
2023/10/20 11:33:12;;;;;;;0.53;0.53;;;;;;;8.60;100.00;98004.94;5039224;28;20552;-74
2023/10/20 11:35:37;;;;;;;0.68;0.40;;;;;;;8.64;100.00;97988.88;5041784;28;20292;-75
2023/10/20 11:38:05;;;;;;;1.42;1.25;;;;;;;8.71;100.00;97980.34;5040096;28;20505;-75
2023/10/20 11:40:30;;;;;;;1.05;0.75;;;;;;;8.50;100.00;97970.50;5038334;28;20578;-75
2023/10/20 11:42:56;;;;;;;0.65;0.60;;;;;;;8.23;100.00;97990.22;5040751;28;20036;-74
2023/10/20 11:45:22;;;;;;;0.85;0.60;;;;;;;8.34;100.00;97976.81;5045344;28;20117;-74
2023/10/20 11:47:47;;;;;;;0.40;0.40;;;;;;;8.53;100.00;97980.78;5040772;28;20025;-74
2023/10/20 11:50:18;;;;;;;1.17;0.73;;;;;;;8.48;100.00;97972.16;5046487;28;20495;-75
2023/10/20 11:52:44;;;;;;;2.30;0.60;;;;;;;8.14;100.00;97970.53;5048146;28;20033;-74
2023/10/20 11:55:10;;;;;;;0.85;0.55;;;;;;;8.31;100.00;97960.97;5044571;28;20095;-75